• Join FlightAware (Why Join?)
  • Login
  • US Flag 
12:38PM EDT


 

Airport Tracker/Info


-or-


 

Live Flight TrackerFlight Track Log ✈ N5FT ✈ 08-Nov-2013 ✈ KSGR - KADS

Flight Track Log - Related Links

Times and Time Zones

All times are in EST time to prevent confusion due to time zone crossing. See the N5FT flight status page for this flight to view local times or setup timezone preferences in your user account.

Time Position Orientation Groundspeed Altitude Reporting Facility
EST Latitude Longitude Course Direction KTS MPH feet Rate Location/Type
02:13PM 29.6100 -95.6575 175° South 94 108 900  Level Houston Center
02:13PM 29.5994 -95.6564 175° South 100 115 1,300 960 Climbing Houston Center
02:14PM 29.5822 -95.6750 223° Southwest 105 121 2,300 840 Climbing Houston Center
02:15PM 29.5917 -95.6883 309° West 114 131 2,800 660 Climbing Houston Center
02:15PM 29.6036 -95.7014 316° Northwest 124 143 3,000 240 Climbing Houston Center
02:16PM 29.6228 -95.7267 311° West 133 153 3,100  Climbing Houston Center
02:16PM 29.6319 -95.7367 317° Northwest 159 183 3,000 -240 Descending Houston Center
02:17PM 29.6536 -95.7642 312° West 155 178 2,900  Descending Houston Center
02:17PM 29.6647 -95.7761 317° Northwest 166 191 3,000  Climbing Houston Center
02:18PM 29.6847 -95.8022 311° West 161 185 2,900  Descending Houston Center
02:18PM 29.6975 -95.8156 318° Northwest 163 188 3,000  Climbing Houston Center
02:19PM 29.7167 -95.8394 313° West 162 186 2,900  Descending Houston Center
02:19PM 29.7283 -95.8528 315° West 158 182 3,000  Climbing Houston Center
02:20PM 29.7450 -95.8769 308° West 158 182 2,900  Descending Houston Center
02:20PM 29.7567 -95.8903 315° West 156 180 3,000  Climbing Houston Center
02:21PM 29.7758 -95.9136 313° West 158 182 2,900  Descending Houston Center
02:21PM 29.7872 -95.9278 313° West 160 184 3,000  Climbing Houston Center
02:22PM 29.8125 -95.9572 315° West 158 182 2,900  Descending Houston Center
02:22PM 29.8219 -95.9647 325° Northwest 160 184 3,000  Climbing Houston Center
02:23PM 29.8511 -95.9536 18° North 157 181 2,900  Descending Houston Center
02:23PM 29.8608 -95.9531 North 143 165 3,000 60 Climbing Houston Center
02:24PM 29.9047 -95.9528 360° North 151 174 3,000 120 Level Houston Center
02:25PM 29.9353 -95.9519 North 152 175 3,300 660 Climbing Houston Center
02:25PM 29.9425 -95.9508 North 131 151 3,700 960 Climbing Houston Center
02:26PM 29.9783 -95.9539 356° North 126 145 4,500 600 Climbing Houston Center
02:27PM 30.0019 -95.9542 359° North 125 144 4,900 480 Climbing Houston Center
02:27PM 30.0142 -95.9547 358° North 129 148 5,000 60 Climbing Houston Center
02:28PM 30.0625 -95.9542 North 169 194 5,000  Level Houston Center
02:29PM 30.0994 -95.9542 360° North 163 188 5,000  Level Houston Center
02:29PM 30.1067 -95.9561 347° North 152 175 5,000 -120 Level Houston Center
02:30PM 30.1433 -95.9558 360° North 162 186 4,900  Descending Houston Center
02:30PM 30.1528 -95.9558 360° North 163 188 5,000  Climbing Houston Center
02:31PM 30.1883 -95.9558 360° North 162 186 4,900  Descending Houston Center
02:32PM 30.1989 -95.9553 North 160 184 5,000  Climbing Houston Center
02:32PM 30.2339 -95.9567 358° North 163 188 4,900  Descending Houston Center
02:33PM 30.2453 -95.9572 358° North 160 184 5,000  Climbing Houston Center
02:33PM 30.2778 -95.9556 North 159 183 4,900  Descending Houston Center
02:34PM 30.2892 -95.9569 354° North 161 185 5,000  Climbing Houston Center
02:34PM 30.3303 -95.9567 360° North 158 182 4,900  Descending Houston Center
02:35PM 30.3333 -95.9567 360° North 157 181 5,000  Climbing Houston Center
02:36PM 30.3753 -95.9575 359° North 160 184 4,900 -60 Descending Houston Center
02:37PM 30.4194 -95.9589 358° North 158 182 4,900  Level Houston Center
02:37PM 30.4192 -95.9581 111° Southeast 158 182 4,900 480 Level Houston Center
02:38PM 30.4636 -95.9586 359° North 145 167 5,400 480 Climbing Houston Center
02:38PM 30.4633 -95.9575 106° East 158 182 5,400 480 Level Houston Center
02:39PM 30.5036 -95.9589 358° North 133 153 5,900 480 Climbing Houston Center
02:39PM 30.4994 -95.9583 173° South 139 160 5,900  Level Houston Center
02:40PM 30.5419 -95.9606 357° North 146 168 5,900  Level Houston Center
02:40PM 30.5539 -95.9603 North 167 192 5,900  Level Houston Center
02:41PM 30.5975 -95.9606 360° North 163 188 5,900  Level Houston Center
02:41PM 30.6000 -95.9600 11° North 164 189 5,900  Level Houston Center
02:42PM 30.6439 -95.9603 360° North 164 189 5,900  Level Houston Center
02:42PM 30.6444 -95.9622 288° West 164 189 5,900  Level Houston Center
02:43PM 30.6900 -95.9617 North 166 191 5,900 240 Level Houston Center
02:44PM 30.7339 -95.9619 360° North 162 186 6,500 600 Climbing Houston Center
02:45PM 30.7747 -95.9642 357° North 139 160 7,200 660 Climbing Houston Center
02:45PM 30.7717 -95.9619 148° Southeast 145 167 7,200 420 Level Houston Center
02:46PM 30.8100 -95.9628 359° North 139 160 7,700 300 Climbing Houston Center
02:47PM 30.8581 -95.9636 359° North 141 162 7,900 60 Climbing Houston Center
02:48PM 30.9019 -95.9628 North 152 175 7,900  Level Houston Center
02:49PM 30.9489 -95.9650 358° North 165 190 7,900  Level Houston Center
02:50PM 30.9939 -95.9636 North 162 186 7,900  Level Houston Center
02:51PM 31.0397 -95.9653 358° North 164 189 7,900  Level Houston Center
02:52PM 31.0839 -95.9664 359° North 158 182 7,900  Level Houston Center
02:53PM 31.1386 -95.9681 359° North 162 186 7,900  Level Houston Center
02:54PM 31.1828 -95.9794 348° North 162 186 7,900  Level Houston Center
02:55PM 31.2286 -95.9906 348° North 166 191 7,900  Level Houston Center
02:56PM 31.2731 -96.0000 350° North 164 189 7,900  Level Houston Center
02:57PM 31.3172 -96.0111 348° North 162 186 7,900  Level Houston Center
02:58PM 31.3617 -96.0211 349° North 163 188 7,900  Level Houston Center
02:59PM 31.4142 -96.0339 348° North 160 184 7,900  Level Houston Center
03:00PM 31.4597 -96.0442 349° North 164 189 7,900  Level Houston Center
03:01PM 31.5050 -96.0536 350° North 166 191 7,900  Level Houston Center
03:02PM 31.5483 -96.0650 347° North 162 186 7,900  Level Houston Center
03:03PM 31.5936 -96.0750 349° North 163 188 7,900  Level Houston Center
03:05PM 31.6389 -96.0858 348° North 165 190 7,900  Level Houston Center
03:06PM 31.6869 -96.0978 348° North 165 190 7,900  Level Houston Center
03:07PM 31.7406 -96.1103 349° North 165 190 7,900  Level Houston Center
03:08PM 31.7856 -96.1206 349° North 165 190 7,900  Level Houston Center
03:09PM 31.8306 -96.1317 348° North 163 188 7,900  Level Houston Center
03:10PM 31.8778 -96.1422 349° North 168 193 7,900  Level Houston Center
03:11PM 31.9231 -96.1531 349° North 166 191 7,900  Level Houston Center
03:12PM 31.9678 -96.1653 347° North 165 190 7,900  Level Houston Center
03:13PM 32.0139 -96.1756 349° North 165 190 7,900  Level Houston Center
03:14PM 32.0739 -96.1925 347° North 165 190 7,900  Level Fort Worth Center
03:15PM 32.1200 -96.2042 348° North 165 190 7,900  Level Fort Worth Center
03:16PM 32.1617 -96.2133 349° North 165 190 7,900  Level Fort Worth Center
03:17PM 32.2058 -96.2300 342° North 165 190 7,900  Level Fort Worth Center
03:18PM 32.2478 -96.2539 334° Northwest 170 196 7,900 -300 Level Fort Worth Center
03:19PM 32.2856 -96.2781 332° Northwest 170 196 7,400 -360 Descending Fort Worth Center
03:20PM 32.3317 -96.3069 332° Northwest 170 196 7,200 -300 Descending Fort Worth Center
03:21PM 32.3672 -96.3261 336° Northwest 165 190 6,900 -180 Descending Fort Worth Center
03:22PM 32.4114 -96.3553 331° Northwest 165 190 6,900  Level Fort Worth Center
03:23PM 32.4492 -96.3769 334° Northwest 165 190 6,900  Level Fort Worth Center
03:24PM 32.4933 -96.4036 333° Northwest 165 190 6,900  Level Fort Worth Center
03:25PM 32.5289 -96.4253 333° Northwest 165 190 6,900  Level Fort Worth Center
03:26PM 32.5750 -96.4519 334° Northwest 165 190 6,900  Level Fort Worth Center
03:27PM 32.6108 -96.4761 330° Northwest 165 190 6,900 -120 Level Fort Worth Center
03:28PM 32.6569 -96.5028 334° Northwest 165 190 6,700 -360 Descending Fort Worth Center
03:29PM 32.6944 -96.5247 334° Northwest 165 190 6,200 -600 Descending Fort Worth Center
03:30PM 32.7386 -96.5539 331° Northwest 165 190 5,600 -480 Descending Fort Worth Center
03:32PM 32.8333 -96.6167 331° Northwest 160 184 4,700 -420 Descending Dallas / Fort Worth TRACON
03:33PM 32.8667 -96.6500 320° Northwest 162 186 4,200 -420 Descending Dallas / Fort Worth TRACON
03:34PM 32.9000 -96.6833 320° Northwest 152 175 3,900 -240 Descending Dallas / Fort Worth TRACON
03:36PM 32.9333 -96.7167 320° Northwest 157 181 3,700 -360 Descending Dallas / Fort Worth TRACON
03:36PM 32.9667 -96.7500 320° Northwest 156 180 3,200 -420 Descending Dallas / Fort Worth TRACON
03:37PM 33.0000 -96.7667 337° Northwest 153 176 3,000 -180 Descending Dallas / Fort Worth TRACON
03:38PM 33.0500 -96.7833 344° North 138 159 2,900 -60 Descending Dallas / Fort Worth TRACON
03:39PM 33.0833 -96.8000 337° Northwest 141 162 2,900 -240 Level Dallas / Fort Worth TRACON
03:41PM 33.1000 -96.8500 292° West 143 165 2,400 -360 Descending Dallas / Fort Worth TRACON
03:42PM 33.1000 -96.8833 270° West 118 136 2,200 -300 Descending Dallas / Fort Worth TRACON
03:43PM 33.0667 -96.8667 157° South 111 128 1,900 -180 Descending Dallas / Fort Worth TRACON
03:44PM 33.0333 -96.8667 180° South 108 124 1,900 -300 Level Dallas / Fort Worth TRACON
03:44PM 33.0167 -96.8500 140° Southeast 94 108 1,400 -540 Descending Dallas / Fort Worth TRACON
03:45PM 32.9833 -96.8500 180° South 95 109 900 -540 Descending Dallas / Fort Worth TRACON